createdAt,value
2019-04-09T00:02:32.574Z,8.86
2019-04-09T00:07:35.250Z,8.83
2019-04-09T00:10:03.684Z,8.78
2019-04-09T00:12:32.969Z,8.75
2019-04-09T00:15:01.301Z,8.69
2019-04-09T00:17:29.666Z,8.73
2019-04-09T00:19:58.019Z,8.74
2019-04-09T00:22:26.389Z,8.77
2019-04-09T00:24:55.393Z,8.73
2019-04-09T00:27:23.111Z,8.70
2019-04-09T00:29:52.562Z,8.68
2019-04-09T00:32:20.675Z,8.73
2019-04-09T00:34:48.659Z,8.78
2019-04-09T00:37:17.323Z,8.78
2019-04-09T00:39:46.097Z,8.86
2019-04-09T00:42:14.477Z,8.82
2019-04-09T00:44:42.824Z,8.79
2019-04-09T00:47:11.405Z,8.74
2019-04-09T00:49:39.751Z,8.73
2019-04-09T00:54:42.326Z,8.61
2019-04-09T00:57:10.911Z,8.61
2019-04-09T00:59:40.103Z,8.54
2019-04-09T01:04:46.434Z,8.60
2019-04-09T01:07:14.908Z,8.59
2019-04-09T01:12:18.314Z,8.57
2019-04-09T01:14:46.231Z,8.50
2019-04-09T01:17:15.224Z,8.49
2019-04-09T01:19:42.727Z,8.53
2019-04-09T01:22:12.402Z,8.51
2019-04-09T01:27:19.013Z,8.55
2019-04-09T01:29:47.068Z,8.56
2019-04-09T01:32:15.181Z,8.55
2019-04-09T01:34:44.900Z,8.58
2019-04-09T01:39:49.069Z,8.75
2019-04-09T01:42:18.440Z,8.73
2019-04-09T01:44:48.117Z,8.70
2019-04-09T01:49:54.653Z,8.67
2019-04-09T01:55:23.745Z,8.67
2019-04-09T01:57:57.958Z,8.68
2019-04-09T02:03:06.701Z,8.77
2019-04-09T02:05:35.876Z,8.73
2019-04-09T02:10:48.092Z,8.84
2019-04-09T02:15:54.013Z,8.87
2019-04-09T02:18:36.382Z,8.85
2019-04-09T02:21:13.499Z,8.86
2019-04-09T02:23:42.743Z,8.80
2019-04-09T02:31:44.820Z,8.62
2019-04-09T02:37:04.562Z,8.60
2019-04-09T02:39:34.942Z,8.32
2019-04-09T02:42:05.013Z,8.27
2019-04-09T02:44:39.476Z,8.29
2019-04-09T02:47:11.611Z,8.28
2019-04-09T02:52:19.785Z,8.39
2019-04-09T03:06:21.450Z,8.54
2019-04-09T03:08:55.533Z,8.50
2019-04-09T03:11:24.973Z,8.51
2019-04-09T03:14:09.886Z,8.53
2019-04-09T03:16:38.833Z,8.51
2019-04-09T03:19:12.790Z,8.51
2019-04-09T03:30:16.639Z,8.53
2019-04-09T03:32:47.160Z,8.53
2019-04-09T03:35:21.142Z,8.50
2019-04-09T03:38:02.510Z,8.40
2019-04-09T03:40:33.722Z,8.36
2019-04-09T03:43:06.607Z,8.31
2019-04-09T03:45:45.696Z,8.29
2019-04-09T03:48:17.369Z,8.26
2019-04-09T03:50:48.303Z,8.29
2019-04-09T03:55:55.593Z,8.25
2019-04-09T04:01:00.017Z,8.27
2019-04-09T04:03:34.852Z,8.23
2019-04-09T04:06:09.602Z,8.24
2019-04-09T04:11:12.207Z,8.25
2019-04-09T04:19:27.782Z,8.31
2019-04-09T04:21:57.887Z,8.31
2019-04-09T04:30:23.586Z,8.43
2019-04-09T04:32:58.302Z,8.45
2019-04-09T04:38:12.139Z,8.44
2019-04-09T04:40:49.916Z,8.34
2019-04-09T04:43:19.207Z,8.32
2019-04-09T04:45:50.785Z,8.29
2019-04-09T04:48:35.796Z,8.29
2019-04-09T04:59:20.801Z,8.34
2019-04-09T05:04:32.231Z,8.35
2019-04-09T05:07:06.117Z,8.35
2019-04-09T05:18:07.216Z,8.47
2019-04-09T05:23:41.570Z,8.62
2019-04-09T05:29:13.807Z,8.54
2019-04-09T05:34:36.334Z,8.55
2019-04-09T05:39:40.890Z,8.53
2019-04-09T05:42:15.173Z,8.54
2019-04-09T05:44:57.082Z,8.72
2019-04-09T05:47:32.673Z,8.67
2019-04-09T05:50:00.525Z,8.66
2019-04-09T05:52:31.389Z,8.64
2019-04-09T05:55:04.320Z,8.70
2019-04-09T06:00:13.791Z,8.77
2019-04-09T06:05:17.424Z,8.65
2019-04-09T06:08:00.501Z,8.71
2019-04-09T06:10:28.844Z,8.72
2019-04-09T06:12:57.378Z,8.75
2019-04-09T06:17:59.856Z,8.94
2019-04-09T06:20:28.208Z,9.10
2019-04-09T06:22:57.309Z,9.46
2019-04-09T06:28:00.114Z,9.82
2019-04-09T06:30:29.318Z,9.77
2019-04-09T06:33:01.766Z,10.15
2019-04-09T06:35:34.951Z,10.41
2019-04-09T06:38:22.991Z,10.50
2019-04-09T06:40:54.898Z,10.32
2019-04-09T06:46:27.516Z,10.63
2019-04-09T06:49:00.543Z,10.84
2019-04-09T06:51:34.721Z,10.67
2019-04-09T06:54:04.018Z,10.98
2019-04-09T06:59:35.088Z,11.38
2019-04-09T07:01:59.959Z,11.26
2019-04-09T07:07:28.249Z,11.52
2019-04-09T07:12:53.308Z,11.73
2019-04-09T07:18:00.404Z,11.83
2019-04-09T07:20:29.011Z,12.04
2019-04-09T07:23:03.724Z,11.99
2019-04-09T07:31:12.969Z,12.03
2019-04-09T07:33:43.534Z,12.14
2019-04-09T07:38:57.400Z,12.40
2019-04-09T07:41:29.477Z,12.68
2019-04-09T07:44:03.500Z,12.33
2019-04-09T07:52:22.239Z,14.04
2019-04-09T08:00:32.841Z,15.43
2019-04-09T08:05:37.650Z,15.64
2019-04-09T08:10:40.204Z,15.55
2019-04-09T08:13:11.092Z,15.15
2019-04-09T08:15:39.376Z,14.11
2019-04-09T08:32:14.320Z,14.62
2019-04-09T08:34:41.860Z,14.60
2019-04-09T08:37:12.206Z,14.58
2019-04-09T08:42:37.729Z,13.98
2019-04-09T08:45:21.606Z,13.92
2019-04-09T08:48:08.548Z,13.51
2019-04-09T08:56:28.192Z,14.54
2019-04-09T08:59:02.105Z,14.38
2019-04-09T09:04:31.311Z,15.34
2019-04-09T09:06:59.518Z,15.69
2019-04-09T09:09:32.766Z,15.06
2019-04-09T09:12:05.232Z,16.10
2019-04-09T09:14:28.878Z,15.98
2019-04-09T09:17:05.777Z,15.63
2019-04-09T09:22:10.819Z,14.92
2019-04-09T09:24:38.259Z,14.51
2019-04-09T09:27:14.992Z,17.04
2019-04-09T09:29:57.653Z,16.68
2019-04-09T09:38:10.844Z,15.87
2019-04-09T09:40:39.236Z,16.46
2019-04-09T09:43:12.797Z,17.26
2019-04-09T10:02:30.842Z,18.56
2019-04-09T10:10:32.089Z,17.80
2019-04-09T10:13:02.986Z,17.19
2019-04-09T10:15:32.329Z,16.75
2019-04-09T10:29:15.550Z,18.93
2019-04-09T10:34:38.278Z,21.49
2019-04-09T10:37:13.893Z,22.42
2019-04-09T10:42:25.235Z,22.93
2019-04-09T10:44:59.429Z,20.71
2019-04-09T10:47:28.835Z,21.51
2019-04-09T10:50:02.091Z,21.76
2019-04-09T10:52:35.372Z,23.22
2019-04-09T10:57:47.444Z,22.17
2019-04-09T11:00:20.758Z,21.62
2019-04-09T11:02:51.389Z,20.91
2019-04-09T11:05:24.832Z,20.38
2019-04-09T11:07:54.297Z,19.70
2019-04-09T11:10:31.037Z,20.67
2019-04-09T11:13:02.235Z,21.04
2019-04-09T11:15:28.749Z,21.02
2019-04-09T11:17:59.172Z,21.97
2019-04-09T11:20:33.009Z,23.15
2019-04-09T11:33:23.748Z,22.70
2019-04-09T11:35:52.698Z,22.22
2019-04-09T11:41:23.159Z,20.83
2019-04-09T11:46:42.273Z,22.05
2019-04-09T11:49:20.466Z,22.98
2019-04-09T11:51:58.263Z,22.66
2019-04-09T11:54:31.111Z,22.99
2019-04-09T11:57:02.348Z,19.94
2019-04-09T11:59:33.200Z,20.04
2019-04-09T12:02:07.052Z,20.39
2019-04-09T12:04:38.209Z,20.08
2019-04-09T12:09:40.145Z,19.73
2019-04-09T12:12:09.444Z,21.00
2019-04-09T12:14:42.294Z,21.39
2019-04-09T12:22:53.140Z,21.19
2019-04-09T12:25:22.028Z,23.57
2019-04-09T12:27:53.027Z,25.38
2019-04-09T12:33:17.416Z,23.72
2019-04-09T12:35:48.689Z,22.03
2019-04-09T12:38:23.275Z,21.17
2019-04-09T12:40:53.330Z,20.55
2019-04-09T12:43:27.304Z,20.66
2019-04-09T12:54:26.584Z,22.07
2019-04-09T12:56:57.567Z,20.63
2019-04-09T13:02:35.387Z,19.70
2019-04-09T13:05:02.232Z,19.93
2019-04-09T13:10:05.862Z,19.87
2019-04-09T13:18:04.760Z,22.22
2019-04-09T13:20:38.077Z,23.36
2019-04-09T13:28:26.048Z,27.11
2019-04-09T13:30:59.067Z,24.60
2019-04-09T13:33:28.780Z,25.28
2019-04-09T13:35:57.056Z,23.81
2019-04-09T13:40:59.875Z,21.13
2019-04-09T13:46:35.291Z,20.33
2019-04-09T13:49:05.008Z,21.02
2019-04-09T13:54:30.093Z,22.92
2019-04-09T13:56:59.104Z,24.54
2019-04-09T13:59:27.944Z,21.36
2019-04-09T14:04:33.456Z,23.13
2019-04-09T14:09:36.203Z,24.42
2019-04-09T14:12:05.300Z,22.69
2019-04-09T14:14:32.986Z,21.05
2019-04-09T14:17:03.141Z,21.77
2019-04-09T14:22:07.087Z,21.38
2019-04-09T14:24:37.368Z,21.88
2019-04-09T14:27:05.887Z,22.01
2019-04-09T14:32:08.516Z,23.01
2019-04-09T14:34:37.204Z,24.17
2019-04-09T14:37:05.667Z,25.81
2019-04-09T14:39:34.149Z,25.50
2019-04-09T14:42:02.365Z,22.34
2019-04-09T14:44:30.741Z,22.83
2019-04-09T14:46:59.886Z,22.41
2019-04-09T14:49:27.521Z,22.11
2019-04-09T14:51:56.115Z,22.41
2019-04-09T14:54:25.324Z,22.74
2019-04-09T14:56:52.620Z,22.27
2019-04-09T14:59:22.116Z,20.67
2019-04-09T15:01:49.344Z,20.91
2019-04-09T15:04:17.725Z,20.01
2019-04-09T15:09:20.383Z,19.50
2019-04-09T15:11:48.806Z,20.15
2019-04-09T15:14:17.639Z,19.12
2019-04-09T15:16:46.730Z,19.50
2019-04-09T15:24:25.803Z,19.33
2019-04-09T15:26:55.084Z,18.45
2019-04-09T15:29:23.456Z,19.13
2019-04-09T15:31:52.074Z,18.81
2019-04-09T15:39:31.859Z,18.37
2019-04-09T15:42:00.212Z,16.96
2019-04-09T15:44:29.386Z,16.73
2019-04-09T15:46:56.988Z,16.14
2019-04-09T15:49:25.332Z,15.68
2019-04-09T15:51:53.793Z,15.50
2019-04-09T15:54:22.156Z,15.80
2019-04-09T15:56:50.804Z,16.11
2019-04-09T16:01:54.030Z,16.29
2019-04-09T16:04:21.813Z,16.32
2019-04-09T16:06:50.105Z,16.47
2019-04-09T16:09:18.681Z,16.58
2019-04-09T16:11:47.420Z,16.29
2019-04-09T16:14:15.875Z,16.18
2019-04-09T16:16:43.982Z,16.27
2019-04-09T16:21:49.220Z,16.28
2019-04-09T16:24:17.577Z,16.43
2019-04-09T16:26:45.958Z,16.09
2019-04-09T16:29:14.522Z,16.13
2019-04-09T16:34:17.698Z,15.99
2019-04-09T16:36:57.652Z,15.97
2019-04-09T16:39:14.124Z,15.89
2019-04-09T16:41:42.486Z,15.79
2019-04-09T16:46:45.098Z,15.39
2019-04-09T16:49:14.519Z,15.17
2019-04-09T16:51:42.933Z,14.87
2019-04-09T16:54:11.780Z,14.81
2019-04-09T16:56:40.258Z,14.66
2019-04-09T17:01:42.144Z,14.42
2019-04-09T17:04:20.059Z,14.32
2019-04-09T17:06:39.451Z,14.29
2019-04-09T17:09:21.350Z,14.32
2019-04-09T17:11:38.705Z,14.18
2019-04-09T17:14:06.032Z,14.00
2019-04-09T17:21:43.622Z,13.79
2019-04-09T17:34:32.991Z,13.61
2019-04-09T17:36:57.188Z,13.57
2019-04-09T17:39:26.320Z,13.47
2019-04-09T17:44:29.074Z,13.53
2019-04-09T17:49:31.648Z,13.46
2019-04-09T17:52:00.011Z,13.49
2019-04-09T17:54:28.453Z,13.39
2019-04-09T18:07:16.000Z,13.62
2019-04-09T18:09:43.465Z,13.65
2019-04-09T18:12:11.792Z,13.57
2019-04-09T18:17:15.268Z,13.31
2019-04-09T18:19:43.493Z,13.12
2019-04-09T18:22:12.330Z,13.08
2019-04-09T18:24:41.024Z,13.04
2019-04-09T18:27:10.207Z,13.26
2019-04-09T18:29:37.712Z,12.99
2019-04-09T18:34:51.838Z,13.12
2019-04-09T18:37:08.221Z,12.75
2019-04-09T18:39:37.027Z,12.66
2019-04-09T18:42:06.531Z,12.66
2019-04-09T18:44:34.377Z,12.56
2019-04-09T18:47:03.718Z,12.61
2019-04-09T18:49:32.094Z,12.50
2019-04-09T18:52:00.840Z,12.55
2019-04-09T18:57:03.733Z,12.58
2019-04-09T18:59:33.873Z,12.63
2019-04-09T19:01:59.927Z,12.46
2019-04-09T19:04:28.329Z,12.35
2019-04-09T19:06:57.729Z,12.22
2019-04-09T19:12:00.293Z,12.24
2019-04-09T19:14:28.266Z,12.18
2019-04-09T19:16:56.801Z,12.00
2019-04-09T19:19:24.711Z,11.97
2019-04-09T19:21:53.472Z,11.82
2019-04-09T19:24:22.626Z,11.77
2019-04-09T19:26:50.902Z,11.61
2019-04-09T19:29:20.198Z,11.58
2019-04-09T19:31:47.608Z,11.55
2019-04-09T19:34:17.190Z,11.66
2019-04-09T19:36:44.407Z,11.72
2019-04-09T19:39:12.835Z,11.78
2019-04-09T19:41:41.763Z,11.73
2019-04-09T19:46:44.745Z,11.82
2019-04-09T19:49:12.847Z,12.13
2019-04-09T19:51:42.765Z,11.92
2019-04-09T19:56:43.672Z,11.76
2019-04-09T20:01:46.382Z,11.92
2019-04-09T20:04:14.943Z,11.86
2019-04-09T20:06:43.765Z,11.87
2019-04-09T20:09:12.048Z,11.76
2019-04-09T20:11:41.404Z,11.89
2019-04-09T20:14:08.780Z,11.74
2019-04-09T20:16:37.331Z,11.60
2019-04-09T20:21:40.881Z,11.65
2019-04-09T20:24:08.705Z,11.69
2019-04-09T20:26:36.781Z,11.71
2019-04-09T20:29:04.993Z,11.66
2019-04-09T20:34:07.910Z,11.23
2019-04-09T20:39:10.288Z,10.96
2019-04-09T20:41:38.721Z,10.99
2019-04-09T20:46:42.209Z,11.15
2019-04-09T20:49:10.188Z,11.17
2019-04-09T20:51:38.955Z,11.22
2019-04-09T20:57:01.606Z,11.11
2019-04-09T20:59:38.535Z,10.94
2019-04-09T21:02:04.026Z,10.96
2019-04-09T21:04:31.912Z,11.10
2019-04-09T21:07:00.268Z,11.22
2019-04-09T21:12:04.504Z,11.36
2019-04-09T21:14:32.278Z,11.36
2019-04-09T21:17:00.854Z,11.29
2019-04-09T21:19:28.984Z,11.25
2019-04-09T21:21:57.328Z,11.10
2019-04-09T21:24:25.696Z,11.08
2019-04-09T21:26:54.468Z,11.02
2019-04-09T21:29:22.453Z,11.08
2019-04-09T21:31:51.641Z,11.24
2019-04-09T21:36:53.624Z,11.06
2019-04-09T21:39:22.866Z,10.96
2019-04-09T21:41:50.455Z,10.83
2019-04-09T21:44:18.848Z,10.59
2019-04-09T21:49:22.129Z,10.40
2019-04-09T21:54:25.213Z,10.40
2019-04-09T21:59:26.868Z,10.11
2019-04-09T22:01:55.993Z,9.96
2019-04-09T22:06:58.779Z,9.86
2019-04-09T22:09:27.174Z,9.85
2019-04-09T22:11:55.414Z,9.86
2019-04-09T22:14:23.108Z,9.88
2019-04-09T22:16:51.746Z,9.87
2019-04-09T22:19:20.748Z,9.79
2019-04-09T22:21:48.246Z,9.71
2019-04-09T22:24:16.575Z,9.63
2019-04-09T22:26:45.596Z,9.47
2019-04-09T22:29:13.367Z,9.35
2019-04-09T22:31:42.179Z,9.29
2019-04-09T22:34:11.286Z,9.22
2019-04-09T22:36:41.609Z,9.14
2019-04-09T22:39:06.870Z,9.14
2019-04-09T22:41:35.439Z,9.07
2019-04-09T22:44:06.574Z,9.06
2019-04-09T22:46:32.620Z,9.05
2019-04-09T22:49:01.036Z,8.98
2019-04-09T22:51:30.671Z,8.93
2019-04-09T22:53:57.879Z,8.91
2019-04-09T22:56:27.160Z,8.89
2019-04-09T22:58:55.352Z,8.90
2019-04-09T23:01:24.945Z,8.88
2019-04-09T23:06:47.493Z,8.86
2019-04-09T23:09:25.658Z,8.82
2019-04-09T23:11:57.613Z,8.80
2019-04-09T23:14:25.948Z,8.92
2019-04-09T23:16:55.333Z,8.93
2019-04-09T23:19:23.791Z,8.91
2019-04-09T23:21:51.975Z,8.93
2019-04-09T23:24:19.771Z,8.88
2019-04-09T23:26:48.044Z,8.87
2019-04-09T23:29:17.080Z,8.86
2019-04-09T23:31:45.253Z,8.86
2019-04-09T23:34:14.428Z,8.87
2019-04-09T23:39:18.075Z,8.93
2019-04-09T23:41:45.552Z,8.97
2019-04-09T23:44:14.480Z,9.04
2019-04-09T23:46:42.297Z,9.09
2019-04-09T23:49:10.724Z,9.12
2019-04-09T23:51:39.597Z,9.14
2019-04-09T23:54:07.756Z,9.12
2019-04-09T23:56:36.108Z,9.09
